Time;durP1;ratioP1;P1;durP2;ratioP2;P2;SDS_P1;SDS_P2;PMS_P1;PMS_P2;Temp;Humidity;BMP_temperature;BMP_pressure;BME280_temperature;BME280_humidity;BME280_pressure;Samples;Min_cycle;Max_cycle;Signal;HPM_P1;HPM_P2
2021/01/22 00:00:15;;;;;;;2.93;0.57;;;9.50;99.90;;;11.90;95.98;96120.69;5033530;28;20280;-75
2021/01/22 00:02:42;;;;;;;0.50;0.50;;;9.40;99.90;;;12.05;95.10;96114.69;5025686;28;20246;-74
2021/01/22 00:05:11;;;;;;;0.60;0.43;;;9.50;99.90;;;11.93;96.88;96116.72;5034158;28;20201;-75
2021/01/22 00:07:38;;;;;;;1.00;0.50;;;9.30;99.90;;;11.73;98.19;96087.16;5033526;28;20794;-74
2021/01/22 00:10:06;;;;;;;0.77;0.60;;;9.20;99.90;;;11.48;100.00;96077.03;5034522;28;20807;-75
2021/01/22 00:12:32;;;;;;;1.13;0.90;;;9.20;99.90;;;11.48;100.00;96088.53;5034020;28;20204;-74
2021/01/22 00:14:59;;;;;;;1.50;0.87;;;9.10;99.90;;;11.49;100.00;96073.28;5022657;28;20232;-74
2021/01/22 00:17:26;;;;;;;0.87;0.60;;;9.00;99.90;;;11.45;100.00;96069.50;5038707;28;20217;-75
2021/01/22 00:19:53;;;;;;;0.60;0.50;;;8.90;99.90;;;11.25;100.00;96080.81;5094302;22;20232;-75
2021/01/22 00:22:19;;;;;;;1.07;0.60;;;8.80;99.90;;;11.28;100.00;96066.97;5069242;28;20242;-72
2021/01/22 00:24:46;;;;;;;0.73;0.50;;;8.80;99.90;;;11.34;100.00;96057.13;5075917;28;20207;-74
2021/01/22 00:27:12;;;;;;;1.80;0.50;;;8.70;99.90;;;11.22;100.00;96059.16;5071540;28;20256;-73
2021/01/22 00:29:38;;;;;;;0.53;0.40;;;8.60;99.90;;;10.97;100.00;96064.22;5069925;28;20222;-73
2021/01/22 00:32:05;;;;;;;0.63;0.50;;;8.40;99.90;;;10.88;100.00;96051.56;5051987;28;20257;-78
2021/01/22 00:34:33;;;;;;;1.47;0.50;;;8.50;99.90;;;10.99;100.00;96052.22;5051859;28;20763;-74
2021/01/22 00:36:59;;;;;;;0.70;0.50;;;8.50;99.90;;;10.96;100.00;96039.38;5051427;28;20203;-75
2021/01/22 00:39:26;;;;;;;0.57;0.50;;;8.50;99.90;;;11.02;100.00;96030.38;5053123;28;20208;-72
2021/01/22 00:41:52;;;;;;;1.37;0.57;;;8.40;99.90;;;10.71;100.00;96020.41;5044849;28;20207;-73
2021/01/22 00:47:30;;;;;;;0.60;0.40;;;8.20;99.90;;;10.49;100.00;96024.16;5051887;28;20204;-74
2021/01/22 00:49:58;;;;;;;0.90;0.40;;;8.00;99.90;;;10.58;100.00;96036.00;5058741;28;20238;-76
2021/01/22 00:52:24;;;;;;;0.40;0.40;;;8.00;99.90;;;10.52;100.00;96029.81;5052214;28;20206;-75
2021/01/22 00:54:51;;;;;;;0.87;0.40;;;8.00;99.90;;;10.31;100.00;96027.94;5058092;28;20226;-76
2021/01/22 00:57:20;;;;;;;0.83;0.53;;;7.90;99.90;;;10.48;100.00;96029.75;5053173;28;20206;-76
2021/01/22 00:59:47;;;;;;;0.50;0.40;;;7.90;99.90;;;10.57;100.00;96024.56;5058880;28;20231;-76
2021/01/22 01:02:13;;;;;;;1.70;0.63;;;7.90;99.90;;;10.48;100.00;96011.88;5045829;28;20204;-72
2021/01/22 01:04:40;;;;;;;1.57;0.40;;;7.90;99.90;;;10.48;100.00;96012.69;5058247;28;20198;-75
2021/01/22 01:07:07;;;;;;;0.40;0.40;;;8.00;99.90;;;10.51;100.00;96014.84;5052972;28;20206;-73
2021/01/22 01:09:34;;;;;;;1.40;0.63;;;8.00;99.90;;;10.44;100.00;96014.25;5052063;28;20237;-75
2021/01/22 01:12:00;;;;;;;1.37;0.60;;;7.90;99.90;;;10.22;100.00;96014.50;5052643;28;20207;-75
2021/01/22 01:14:26;;;;;;;2.73;0.60;;;7.80;99.90;;;10.29;100.00;96007.91;5052095;28;20226;-73
2021/01/22 01:16:53;;;;;;;1.10;0.60;;;7.70;99.90;;;10.33;100.00;95996.53;5056523;28;20210;-74
2021/01/22 01:19:19;;;;;;;0.47;0.47;;;7.70;99.90;;;10.26;100.00;96001.22;5050460;28;20206;-73
2021/01/22 01:21:46;;;;;;;1.57;0.47;;;7.80;99.90;;;10.31;100.00;95998.59;5053251;28;20296;-75
2021/01/22 01:24:13;;;;;;;1.57;0.50;;;7.90;99.90;;;10.51;100.00;95990.84;5060591;28;20635;-74
2021/01/22 01:26:40;;;;;;;1.27;0.60;;;8.00;99.90;;;10.41;100.00;95992.63;5050575;28;20216;-75
2021/01/22 01:29:06;;;;;;;1.10;0.50;;;8.00;99.90;;;10.62;100.00;95999.78;5054244;28;20216;-74
2021/01/22 01:31:33;;;;;;;0.80;0.67;;;8.00;99.90;;;10.51;100.00;95990.06;5051958;28;20218;-74
2021/01/22 01:33:59;;;;;;;0.37;0.37;;;8.00;99.90;;;10.52;100.00;96005.81;5060539;28;20221;-72
2021/01/22 01:36:25;;;;;;;0.63;0.50;;;7.90;99.90;;;10.43;100.00;95991.31;5052868;28;20213;-74
2021/01/22 01:38:52;;;;;;;0.40;0.40;;;8.00;99.90;;;10.45;100.00;95994.53;5051029;28;20718;-74
2021/01/22 01:41:19;;;;;;;0.80;0.60;;;7.90;99.90;;;10.50;100.00;95996.47;5051393;28;20696;-73
2021/01/22 01:43:46;;;;;;;0.83;0.40;;;7.90;99.90;;;10.44;100.00;96000.09;5056141;28;20206;-74
2021/01/22 01:46:12;;;;;;;0.30;0.30;;;7.90;99.90;;;10.54;100.00;96000.22;5052266;28;20731;-74
2021/01/22 01:48:39;;;;;;;1.53;0.30;;;8.10;99.90;;;10.61;100.00;95998.19;5051170;28;20651;-75
2021/01/22 01:51:06;;;;;;;0.30;0.30;;;8.00;99.90;;;10.57;100.00;95997.06;5051288;28;20222;-73
2021/01/22 01:53:33;;;;;;;0.83;0.47;;;8.10;99.90;;;10.70;100.00;96004.69;5052756;28;20197;-74
2021/01/22 01:56:01;;;;;;;0.63;0.30;;;8.10;99.90;;;10.69;100.00;96009.22;5050670;28;20198;-75
2021/01/22 01:58:28;;;;;;;0.30;0.30;;;8.10;99.90;;;10.73;100.00;95998.84;5055726;28;20203;-75
2021/01/22 02:00:55;;;;;;;0.57;0.40;;;8.10;99.90;;;10.68;100.00;96006.00;5050495;28;20233;-77
2021/01/22 02:03:21;;;;;;;0.67;0.30;;;8.20;99.90;;;10.76;100.00;96007.13;5051750;28;20256;-74
2021/01/22 02:05:48;;;;;;;0.67;0.50;;;8.20;99.90;;;10.74;100.00;95989.78;5062003;28;20201;-74
2021/01/22 02:08:16;;;;;;;0.70;0.30;;;8.20;99.90;;;10.84;100.00;96013.91;5053212;28;20198;-74
2021/01/22 02:10:43;;;;;;;1.37;0.30;;;8.20;99.90;;;10.79;100.00;96011.16;5060645;28;20233;-73
2021/01/22 02:13:10;;;;;;;0.53;0.40;;;8.30;99.90;;;10.74;100.00;96005.78;5057920;28;20206;-75
2021/01/22 02:15:39;;;;;;;0.60;0.60;;;8.30;99.90;;;10.78;100.00;95999.72;5054665;28;20639;-74
2021/01/22 02:18:07;;;;;;;0.40;0.40;;;8.20;99.90;;;10.79;100.00;96003.16;5053737;28;20226;-76
2021/01/22 02:20:59;;;;;;;0.33;0.33;;;8.20;99.90;;;10.76;100.00;96006.34;5053504;28;20238;-73
2021/01/22 02:23:28;;;;;;;0.67;0.60;;;8.30;99.90;;;10.89;100.00;96009.44;5052276;28;20211;-76
2021/01/22 02:26:16;;;;;;;0.50;0.50;;;8.30;99.90;;;10.73;100.00;96006.84;5059534;28;20202;-73
2021/01/22 02:28:44;;;;;;;1.60;0.47;;;;;;;10.73;100.00;96009.50;5060135;28;20214;-74
2021/01/22 02:31:14;;;;;;;1.30;0.40;;;;;;;10.73;100.00;96007.66;5054903;28;20695;-74
2021/01/22 02:33:43;;;;;;;1.30;0.70;;;;;;;10.88;100.00;96003.56;5052691;28;20237;-75
2021/01/22 02:36:10;;;;;;;1.60;0.50;;;8.50;99.90;;;10.93;100.00;96010.53;5064644;28;20210;-76
2021/01/22 02:38:39;;;;;;;1.83;0.40;;;8.40;99.90;;;10.94;100.00;96011.34;5058772;28;20235;-73
2021/01/22 02:41:08;;;;;;;1.03;0.50;;;8.40;99.90;;;10.73;100.00;96007.66;5054908;28;20759;-74
2021/01/22 02:43:35;;;;;;;0.87;0.60;;;8.30;99.90;;;10.81;100.00;96014.41;5055580;28;20198;-74
2021/01/22 02:46:04;;;;;;;0.80;0.40;;;8.30;99.90;;;10.78;100.00;96012.22;5054699;28;20212;-74
2021/01/22 02:48:30;;;;;;;0.80;0.50;;;8.20;99.90;;;10.70;100.00;96002.03;5056305;28;20200;-76
2021/01/22 02:50:57;;;;;;;1.03;0.50;;;8.20;99.90;;;10.53;100.00;96012.75;5059214;28;20279;-74
2021/01/22 02:53:23;;;;;;;0.93;0.40;;;8.10;99.90;;;10.67;100.00;96007.84;5053542;28;20729;-74
2021/01/22 02:55:53;;;;;;;1.47;0.40;;;8.10;99.90;;;10.63;100.00;96002.22;5060527;28;20208;-74
2021/01/22 02:58:27;;;;;;;0.67;0.57;;;8.10;99.90;;;10.63;100.00;96010.22;5060998;28;20205;-74
2021/01/22 03:01:03;;;;;;;2.70;0.67;;;8.10;99.90;;;10.55;100.00;96013.31;5052012;28;20232;-76
2021/01/22 03:03:41;;;;;;;2.77;0.50;;;8.00;99.90;;;10.39;100.00;96006.19;5055564;28;20213;-76
2021/01/22 03:06:17;;;;;;;0.83;0.40;;;7.90;99.90;;;10.15;100.00;96002.13;5060805;28;20201;-74
2021/01/22 03:08:44;;;;;;;0.30;0.30;;;7.80;99.90;;;10.15;100.00;95999.47;5044237;28;20601;-74
2021/01/22 03:11:12;;;;;;;1.27;0.53;;;7.60;99.90;;;10.10;100.00;95999.41;5053240;28;20227;-74
2021/01/22 03:13:39;;;;;;;2.03;0.80;;;7.60;99.90;;;10.17;100.00;96004.56;5053297;28;20244;-74
2021/01/22 03:16:07;;;;;;;2.00;0.60;;;7.70;99.90;;;10.30;100.00;96002.34;5059005;28;20207;-74
2021/01/22 03:18:34;;;;;;;2.30;0.63;;;7.70;99.90;;;10.20;100.00;95996.09;5056690;28;20215;-76
2021/01/22 03:21:09;;;;;;;2.00;0.57;;;7.60;99.90;;;10.09;100.00;96011.13;5051559;28;20230;-74
2021/01/22 03:23:35;;;;;;;1.53;0.40;;;7.50;99.90;;;9.98;100.00;96011.19;5060072;28;20241;-74
2021/01/22 03:26:02;;;;;;;2.03;0.50;;;7.50;99.90;;;10.03;100.00;96008.59;5056551;28;20202;-73
2021/01/22 03:28:28;;;;;;;2.23;0.60;;;7.40;99.90;;;10.09;100.00;96013.78;5052934;28;20198;-74
2021/01/22 03:30:55;;;;;;;2.17;0.60;;;7.40;99.90;;;9.69;100.00;96010.50;5059939;28;20725;-74
2021/01/22 03:33:22;;;;;;;1.43;0.70;;;7.40;99.90;;;9.88;100.00;96011.88;5054852;28;20216;-74
2021/01/22 03:35:48;;;;;;;1.83;0.90;;;7.40;99.90;;;9.86;100.00;96013.16;5064523;28;20260;-73
2021/01/22 03:38:15;;;;;;;3.53;0.60;;;7.40;99.90;;;9.72;100.00;96025.19;5052956;28;20219;-75
2021/01/22 03:40:42;;;;;;;0.83;0.50;;;;;;;9.90;100.00;96022.28;5052803;28;20221;-73
2021/01/22 03:43:08;;;;;;;0.93;0.50;;;;;;;9.81;100.00;96013.09;5048589;28;20201;-74
2021/01/22 03:45:35;;;;;;;3.50;0.70;;;;;;;9.93;100.00;96003.13;5063540;28;20206;-73
2021/01/22 03:48:03;;;;;;;1.80;0.63;;;;;;;9.81;100.00;96002.44;5060150;28;20223;-72
2021/01/22 03:50:30;;;;;;;0.97;0.53;;;;;;;9.75;100.00;96006.88;5055963;28;20260;-74
2021/01/22 03:52:57;;;;;;;2.93;0.70;;;;;;;9.87;100.00;95994.28;5053903;28;20674;-73
2021/01/22 03:55:24;;;;;;;3.23;0.50;;;;;;;9.86;100.00;95990.00;5052352;28;20633;-73
2021/01/22 03:57:51;;;;;;;1.70;0.80;;;;;;;9.85;100.00;95993.69;5058045;28;20559;-75
2021/01/22 04:00:18;;;;;;;1.10;0.50;;;;;;;9.91;100.00;95987.41;5054062;28;20229;-74
2021/01/22 04:02:45;;;;;;;2.17;0.80;;;;;;;9.93;100.00;95984.47;5051636;28;20556;-76
2021/01/22 04:05:12;;;;;;;2.30;0.60;;;;;;;10.04;100.00;95989.72;5058851;28;20193;-74
2021/01/22 04:07:40;;;;;;;2.90;0.83;;;;;;;9.87;100.00;95988.13;5054712;28;20206;-75
2021/01/22 04:10:08;;;;;;;4.27;0.80;;;;;;;9.98;100.00;95982.69;5055610;28;20230;-75
2021/01/22 04:12:35;;;;;;;1.00;0.60;;;;;;;9.98;100.00;95993.34;5052594;28;20611;-75
2021/01/22 04:15:02;;;;;;;1.47;0.70;;;;;;;9.93;100.00;95981.81;5060634;28;20247;-75
2021/01/22 04:17:30;;;;;;;1.73;0.80;;;;;;;9.91;100.00;95971.44;5054198;28;20213;-75
2021/01/22 04:19:57;;;;;;;1.67;0.70;;;;;;;9.96;100.00;95979.50;5052781;28;20237;-75
2021/01/22 04:22:24;;;;;;;0.70;0.50;;;;;;;9.92;100.00;95967.69;5052882;28;20210;-74
2021/01/22 04:24:52;;;;;;;0.73;0.53;;;;;;;9.94;100.00;95964.81;5055485;28;20655;-75
2021/01/22 04:27:18;;;;;;;1.50;0.70;;;;;;;10.07;100.00;95961.00;5058563;28;20208;-74
2021/01/22 04:29:45;;;;;;;5.00;0.83;;;;;;;10.11;100.00;95962.91;5052191;28;20228;-75
2021/01/22 04:32:12;;;;;;;1.27;0.60;;;;;;;10.19;99.23;95959.84;5055003;28;20577;-74
2021/01/22 04:34:39;;;;;;;1.60;0.60;;;;;;;10.09;99.34;95967.69;5059650;28;20260;-75
2021/01/22 04:37:06;;;;;;;0.80;0.60;;;;;;;10.23;97.60;95956.41;5051395;28;20221;-74
2021/01/22 04:39:34;;;;;;;3.33;0.90;;;;;;;10.14;98.38;95955.22;5051331;28;20206;-74
2021/01/22 04:42:03;;;;;;;2.17;0.60;;;;;;;10.12;97.54;95948.53;5059563;28;20209;-76
2021/01/22 04:44:30;;;;;;;4.00;0.67;;;;;;;10.15;96.76;95948.84;5054256;28;20673;-74
2021/01/22 04:46:56;;;;;;;1.60;0.70;;;;;;;10.27;95.18;95936.22;5048168;28;20214;-73
2021/01/22 04:49:23;;;;;;;2.23;0.70;;;7.70;99.90;;;10.26;95.00;95933.78;5051231;28;20729;-77
2021/01/22 04:51:51;;;;;;;1.63;1.00;;;7.80;99.90;;;10.26;95.29;95929.25;5059054;28;20209;-77
2021/01/22 04:54:27;;;;;;;3.13;0.70;;;7.80;99.90;;;10.17;95.94;95926.47;5059544;28;20249;-77
2021/01/22 04:56:57;;;;;;;1.47;0.60;;;7.70;99.90;;;10.34;94.06;95922.66;5051529;28;20282;-77
2021/01/22 04:59:35;;;;;;;1.67;0.60;;;7.70;99.90;;;10.22;95.55;95915.88;5052681;28;20199;-75
2021/01/22 05:02:02;;;;;;;1.60;0.57;;;7.80;99.90;;;10.33;94.83;95911.22;5051855;28;20694;-77
2021/01/22 05:04:29;;;;;;;1.07;0.40;;;7.90;99.90;;;10.39;93.71;95912.88;5050994;28;20206;-75
2021/01/22 05:06:56;;;;;;;2.30;0.70;;;7.90;99.90;;;10.47;93.63;95924.94;5052488;28;20210;-76
2021/01/22 05:09:24;;;;;;;2.70;0.80;;;7.90;99.90;;;10.34;94.51;95912.81;5052278;28;20202;-73
2021/01/22 05:11:53;;;;;;;1.40;0.50;;;7.80;99.90;;;10.34;95.80;95904.81;5068362;28;20203;-76
2021/01/22 05:14:20;;;;;;;0.63;0.40;;;7.90;99.90;;;10.31;96.33;95915.97;5057720;28;20225;-77
2021/01/22 05:17:04;;;;;;;1.20;0.40;;;7.90;99.90;;;10.35;96.54;95895.75;5048338;28;20213;-73
2021/01/22 05:19:31;;;;;;;1.53;0.40;;;7.90;99.90;;;10.33;96.56;95895.22;5051299;28;20225;-74
2021/01/22 05:22:00;;;;;;;0.67;0.37;;;8.00;99.90;;;10.43;96.08;95886.50;5051134;28;20284;-75
2021/01/22 05:24:29;;;;;;;0.63;0.30;;;8.00;99.90;;;10.38;97.32;95891.00;5051288;28;20283;-74
2021/01/22 05:27:04;;;;;;;0.30;0.30;;;8.00;99.90;;;10.44;96.87;95869.44;5054121;28;20206;-76
2021/01/22 05:29:32;;;;;;;0.33;0.30;;;8.10;99.90;;;10.49;96.75;95880.97;5051893;28;20201;-75
2021/01/22 05:31:59;;;;;;;1.67;0.60;;;8.00;99.90;;;10.41;97.98;95868.09;5059062;28;20580;-76
2021/01/22 05:34:44;;;;;;;0.23;0.23;;;7.90;99.90;;;10.41;97.54;95876.09;5058456;28;20229;-74
2021/01/22 05:37:11;;;;;;;2.80;0.40;;;8.00;99.90;;;10.57;96.88;95885.06;5050893;28;20210;-74
2021/01/22 05:39:38;;;;;;;2.37;0.50;;;8.00;99.90;;;10.43;98.05;95889.16;5051755;28;20222;-74
2021/01/22 05:42:06;;;;;;;0.20;0.20;;;8.10;99.90;;;10.53;97.98;95881.28;5051315;28;20651;-75
2021/01/22 05:44:32;;;;;;;1.70;0.40;;;8.10;99.90;;;10.61;97.03;95875.50;5054031;28;20209;-75
2021/01/22 05:47:10;;;;;;;0.60;0.60;;;8.00;99.90;;;10.32;99.92;95874.94;5055409;28;20236;-78
2021/01/22 05:49:56;;;;;;;0.40;0.40;;;7.90;99.90;;;10.42;98.75;95879.56;5055367;28;20698;-76
2021/01/22 05:52:24;;;;;;;0.30;0.30;;;7.90;99.90;;;10.38;100.00;95881.94;5056328;28;20202;-76
2021/01/22 05:54:51;;;;;;;0.20;0.20;;;7.90;99.90;;;10.44;99.26;95875.59;5062383;28;20217;-76
2021/01/22 05:57:18;;;;;;;0.30;0.30;;;8.00;99.90;;;10.43;99.07;95872.38;5054930;28;20223;-76
2021/01/22 05:59:45;;;;;;;0.93;0.50;;;8.00;99.90;;;10.45;98.66;95874.53;5060013;28;20232;-74
2021/01/22 06:02:29;;;;;;;2.30;0.50;;;8.00;99.90;;;10.50;98.56;95885.25;5061026;28;20197;-75
2021/01/22 06:05:14;;;;;;;1.57;0.50;;;8.10;99.90;;;10.38;99.69;95879.28;5054783;28;20206;-75
2021/01/22 06:07:42;;;;;;;0.20;0.20;;;8.00;99.90;;;10.44;99.46;95888.13;5054259;28;20198;-76
2021/01/22 06:10:20;;;;;;;0.90;0.40;;;8.00;99.90;;;10.43;98.66;95867.06;5055055;28;20229;-76
2021/01/22 06:12:51;;;;;;;1.75;0.43;;;7.90;99.90;;;10.51;98.13;95867.41;5047997;28;20447;-77
2021/01/22 06:15:20;;;;;;;2.03;0.50;;;8.10;99.90;;;10.66;97.03;95872.88;5056390;28;20301;-78
2021/01/22 06:17:51;;;;;;;0.37;0.30;;;8.00;99.90;;;10.55;97.40;95865.84;5049030;28;20211;-76
2021/01/22 06:20:20;;;;;;;1.53;0.40;;;7.90;99.90;;;10.50;98.39;95857.81;5060413;28;20232;-81
2021/01/22 06:23:01;;;;;;;1.70;0.50;;;7.90;99.90;;;10.50;98.56;95858.59;5054479;28;20993;-79
2021/01/22 06:25:27;;;;;;;1.73;0.50;;;7.90;99.90;;;10.50;99.14;95860.47;5066389;28;20247;-77
2021/01/22 06:27:56;;;;;;;1.30;0.50;;;8.00;99.90;;;10.44;98.16;95851.59;5054449;28;20898;-77
2021/01/22 06:30:25;;;;;;;0.43;0.40;;;8.00;99.90;;;10.54;97.46;95851.69;5063479;28;20223;-77
2021/01/22 06:32:53;;;;;;;1.53;0.90;;;8.00;99.90;;;10.50;97.85;95855.13;5060335;28;20200;-76
2021/01/22 06:35:20;;;;;;;0.97;0.40;;;8.00;99.90;;;10.54;98.30;95859.69;5054458;28;20233;-75
2021/01/22 06:37:48;;;;;;;2.30;0.43;;;7.90;99.90;;;10.49;97.75;95866.84;5061227;28;20245;-77
2021/01/22 06:40:16;;;;;;;2.17;0.70;;;8.00;99.90;;;10.60;97.24;95874.69;5055001;28;20222;-76
2021/01/22 06:42:43;;;;;;;0.40;0.40;;;7.90;99.90;;;10.57;97.76;95872.53;5055094;28;20206;-77
2021/01/22 06:45:11;;;;;;;0.57;0.33;;;8.00;99.90;;;10.46;98.33;95867.34;5054861;28;20236;-75
2021/01/22 06:47:38;;;;;;;0.47;0.40;;;8.00;99.90;;;10.67;96.23;95877.16;5052676;28;20199;-77
2021/01/22 06:50:20;;;;;;;0.50;0.40;;;8.10;99.90;;;10.48;97.49;95865.22;5085241;22;20225;-75
2021/01/22 06:53:06;;;;;;;0.33;0.33;;;8.10;99.90;;;10.43;98.04;95878.50;5076013;28;20204;-77
2021/01/22 06:55:33;;;;;;;0.37;0.30;;;8.10;99.90;;;10.62;95.88;95877.09;5068578;28;20220;-76
2021/01/22 06:58:24;;;;;;;0.97;0.40;;;8.10;99.90;;;10.54;96.75;95865.03;5072657;28;20211;-75
2021/01/22 07:00:53;;;;;;;0.30;0.30;;;8.00;99.90;;;10.39;97.69;95867.53;5064033;28;20233;-77
2021/01/22 07:03:50;;;;;;;2.70;0.47;;;8.00;99.90;;;10.45;97.08;95863.09;5078753;28;20269;-75
2021/01/22 07:06:52;;;;;;;1.43;0.37;;;8.00;99.90;;;10.34;98.09;95864.81;5072547;28;20204;-74
2021/01/22 07:09:19;;;;;;;1.03;0.50;;;8.00;99.90;;;10.41;97.97;95868.09;5079139;28;20679;-74
2021/01/22 07:11:57;;;;;;;0.87;0.50;;;7.90;99.90;;;10.10;100.00;95874.16;5070139;28;20207;-77
2021/01/22 07:14:38;;;;;;;1.50;0.40;;;7.70;99.90;;;10.38;97.59;95870.47;5067326;28;20229;-76
2021/01/22 07:17:27;;;;;;;1.10;0.40;;;7.80;99.90;;;10.45;96.81;95868.41;5074132;28;20205;-78
2021/01/22 07:20:01;;;;;;;0.20;0.20;;;7.90;99.90;;;10.31;97.73;95873.31;5079608;28;20240;-78
2021/01/22 07:22:30;;;;;;;0.83;0.50;;;8.00;99.90;;;10.49;96.57;95869.50;5087759;28;20318;-75
2021/01/22 07:24:59;;;;;;;0.30;0.30;;;7.90;99.90;;;10.56;95.73;95873.56;5083602;28;20207;-80
2021/01/22 07:27:40;;;;;;;1.40;0.50;;;7.90;99.90;;;10.49;95.67;95872.97;5081116;28;20207;-77
2021/01/22 07:30:13;;;;;;;1.50;0.50;;;8.00;99.90;;;10.53;95.58;95870.59;5070745;28;20249;-78
2021/01/22 07:32:41;;;;;;;1.37;0.40;;;7.90;99.90;;;10.41;96.73;95867.31;5076158;28;20203;-77
2021/01/22 07:35:09;;;;;;;1.03;0.60;;;8.00;99.90;;;10.47;96.52;95860.97;5071696;28;20317;-77
2021/01/22 07:37:39;;;;;;;1.03;0.30;;;8.00;99.90;;;10.45;95.84;95858.53;5074954;28;20206;-76
2021/01/22 07:40:09;;;;;;;0.60;0.40;;;8.00;99.90;;;10.52;94.84;95848.50;5068619;28;20688;-76
2021/01/22 07:42:36;;;;;;;2.20;0.40;;;8.00;99.90;;;10.57;94.74;95845.06;5071908;28;20219;-75
2021/01/22 07:45:12;;;;;;;1.23;0.47;;;8.10;99.90;;;10.77;92.59;95855.91;5074175;28;20197;-76
2021/01/22 07:47:42;;;;;;;3.33;0.50;;;8.10;99.90;;;10.59;94.64;95849.06;5076584;28;20289;-75
2021/01/22 07:50:10;;;;;;;2.00;0.33;;;8.00;99.90;;;10.63;93.83;95862.72;5068614;28;20227;-74
2021/01/22 07:52:40;;;;;;;1.83;0.70;;;8.10;99.90;;;10.66;93.06;95864.88;5076171;28;20207;-75
2021/01/22 07:55:15;;;;;;;0.60;0.47;;;8.10;99.90;;;10.78;92.13;95862.84;5080406;28;20228;-75
2021/01/22 07:57:42;;;;;;;0.50;0.30;;;8.10;99.90;;;10.69;92.91;95877.69;5076688;28;20225;-77
2021/01/22 08:00:11;;;;;;;0.40;0.40;;;8.20;99.90;;;10.74;92.51;95873.22;5067589;28;20217;-75
2021/01/22 08:02:37;;;;;;;2.80;0.60;;;8.30;99.90;;;10.70;93.41;95861.44;5070353;28;20205;-73
2021/01/22 08:05:08;;;;;;;1.20;0.90;;;8.30;99.90;;;11.03;90.64;95865.72;5077775;28;20285;-75
2021/01/22 08:07:40;;;;;;;0.80;0.40;;;8.40;99.90;;;10.84;91.86;95872.50;5072530;28;20907;-76
2021/01/22 08:10:09;;;;;;;1.70;0.53;;;8.30;99.90;;;10.65;93.32;95860.59;5068298;28;20752;-73
2021/01/22 08:12:36;;;;;;;3.13;0.90;;;8.30;99.90;;;10.73;93.20;95844.13;5080648;28;20206;-77
2021/01/22 08:15:16;;;;;;;3.27;0.57;;;8.30;99.90;;;10.84;92.77;95849.28;5074074;28;20230;-76
2021/01/22 08:17:49;;;;;;;1.37;0.50;;;8.40;99.90;;;10.96;91.19;95849.91;5079956;28;20201;-74
2021/01/22 08:20:18;;;;;;;1.83;0.67;;;8.50;99.90;;;10.94;92.09;95856.56;5075193;28;20221;-74
2021/01/22 08:22:52;;;;;;;0.50;0.40;;;8.50;99.90;;;10.98;91.57;95857.66;5065826;28;20223;-74
2021/01/22 08:25:28;;;;;;;1.23;0.33;;;8.60;99.90;;;11.35;88.53;95859.28;5070426;28;20682;-75
2021/01/22 08:27:56;;;;;;;1.43;0.60;;;8.60;99.90;;;11.11;90.54;95866.03;5068933;28;20611;-75
2021/01/22 08:30:24;;;;;;;1.23;0.40;;;8.70;99.90;;;11.46;88.54;95863.59;5069406;28;20307;-79
2021/01/22 08:32:52;;;;;;;1.17;0.33;;;8.80;99.90;;;11.48;87.77;95856.16;5077019;28;20211;-77
2021/01/22 08:35:19;;;;;;;2.37;1.20;;;9.00;99.90;;;11.42;88.85;95853.72;5074991;28;20222;-78
2021/01/22 08:37:46;;;;;;;1.17;0.50;;;9.10;99.90;;;11.65;87.23;95860.56;5067192;28;20202;-75
2021/01/22 08:40:15;;;;;;;2.13;1.37;;;9.10;99.90;;;11.56;88.02;95854.88;5072117;28;20227;-72
2021/01/22 08:42:58;;;;;;;3.50;0.80;;;9.00;99.90;;;11.57;86.17;95849.25;5069660;28;20206;-75
2021/01/22 08:45:25;;;;;;;0.30;0.30;;;9.10;99.90;;;11.89;83.80;95857.19;5071802;28;20209;-76
2021/01/22 08:47:52;;;;;;;1.50;0.60;;;9.20;99.90;;;12.02;83.20;95849.47;5072156;28;20199;-74
2021/01/22 08:50:19;;;;;;;0.40;0.40;;;9.30;99.90;;;12.08;81.40;95856.44;5074382;28;20269;-74
2021/01/22 08:52:46;;;;;;;0.37;0.33;;;9.30;99.90;;;11.98;80.72;95860.16;5074876;28;20607;-74
2021/01/22 08:55:23;;;;;;;1.00;0.63;;;9.50;99.90;;;11.89;81.05;95859.84;5064420;28;20223;-74
2021/01/22 08:58:04;;;;;;;2.47;0.80;;;9.60;99.90;;;12.19;78.99;95854.63;5073679;28;20218;-77
2021/01/22 09:00:31;;;;;;;0.97;0.30;;;9.60;99.90;;;12.31;78.58;95863.22;5074793;28;20236;-77
2021/01/22 09:02:57;;;;;;;1.87;0.70;;;9.70;99.90;;;12.41;77.50;95867.78;5073691;28;20744;-77
2021/01/22 09:05:25;;;;;;;2.37;0.87;;;9.80;99.90;;;12.27;78.24;95866.69;5071282;28;20239;-72
2021/01/22 09:08:06;;;;;;;1.53;0.60;;;9.80;99.90;;;12.42;77.09;95859.50;5072815;28;20939;-79
2021/01/22 09:10:34;;;;;;;1.10;0.50;;;9.80;99.90;;;12.36;76.98;95875.81;5068937;28;20246;-75
2021/01/22 09:13:12;;;;;;;0.90;0.43;;;9.90;99.90;;;12.10;78.40;95863.44;5066758;28;20233;-75
2021/01/22 09:15:40;;;;;;;1.37;0.60;;;9.80;99.90;;;12.47;77.59;95878.22;5070109;28;20597;-74
2021/01/22 09:18:18;;;;;;;1.20;0.47;;;9.80;99.90;;;12.25;78.62;95869.63;5069842;28;20219;-76
2021/01/22 09:20:46;;;;;;;2.43;1.33;;;9.80;99.90;;;12.40;78.15;95876.88;5062344;28;20327;-77
2021/01/22 09:23:13;;;;;;;0.80;0.60;;;9.90;99.90;;;12.35;77.59;95885.69;5070814;28;20288;-76
2021/01/22 09:25:41;;;;;;;0.33;0.33;;;9.70;99.90;;;12.48;77.66;95879.84;5076772;28;20202;-75
2021/01/22 09:28:08;;;;;;;1.07;0.53;;;9.80;99.90;;;12.71;75.99;95886.59;5071631;28;20202;-76
2021/01/22 09:30:35;;;;;;;1.63;0.40;;;10.00;99.90;;;12.63;76.18;95875.31;5062601;28;20265;-74
2021/01/22 09:33:01;;;;;;;0.70;0.50;;;10.10;99.90;;;12.92;73.82;95870.25;5062427;28;20665;-77
2021/01/22 09:35:29;;;;;;;0.73;0.50;;;10.20;99.90;;;13.04;74.01;95881.56;5069459;28;20225;-76
2021/01/22 09:37:57;;;;;;;1.10;0.60;;;10.40;99.90;;;12.99;73.71;95894.94;5067620;28;20324;-76
2021/01/22 09:40:24;;;;;;;2.40;0.70;;;10.50;99.90;;;13.50;69.85;95898.41;5073713;28;20236;-82
2021/01/22 09:42:52;;;;;;;1.33;0.60;;;10.70;99.90;;;13.42;71.19;95886.34;5065352;28;20207;-79
2021/01/22 09:45:19;;;;;;;0.80;0.60;;;10.90;99.90;;;13.62;74.89;95890.91;5072048;28;20588;-76
2021/01/22 09:47:46;;;;;;;3.10;0.70;;;11.00;99.90;;;13.65;70.05;95904.56;5062849;28;20213;-79
2021/01/22 09:50:15;;;;;;;1.07;0.40;;;11.00;99.90;;;13.95;66.49;95898.31;5052426;28;634352;-79
2021/01/22 09:52:42;;;;;;;1.80;0.50;;;11.10;99.90;;;13.71;67.89;95897.28;5066049;28;20247;-80
2021/01/22 09:55:12;;;;;;;1.23;0.50;;;11.10;99.90;;;13.89;67.24;95894.84;5067843;28;20227;-79
2021/01/22 09:57:39;;;;;;;2.23;0.70;;;11.10;99.90;;;13.54;68.40;95905.63;5073718;28;20577;-79
2021/01/22 10:00:10;;;;;;;2.77;1.07;;;11.00;99.90;;;13.82;67.97;95902.34;5079546;28;20226;-81
2021/01/22 10:02:37;;;;;;;0.90;0.60;;;11.20;99.90;;;13.71;67.88;95892.75;5064749;28;20232;-77
2021/01/22 10:05:05;;;;;;;1.93;0.60;;;11.30;99.90;;;13.83;66.59;95897.81;5067714;28;20723;-79
2021/01/22 10:07:32;;;;;;;2.70;0.90;;;11.30;99.90;;;13.96;65.42;95899.91;5067507;28;20650;-79
2021/01/22 10:09:58;;;;;;;1.50;0.53;;;11.40;99.90;;;14.40;63.52;95890.94;5071849;28;20614;-77
2021/01/22 10:12:25;;;;;;;0.63;0.33;;;11.70;99.90;;;14.11;65.12;95889.94;5065303;28;20209;-81
2021/01/22 10:14:52;;;;;;;3.70;0.50;;;11.70;99.90;;;14.63;62.94;95884.09;5066946;28;20221;-78
2021/01/22 10:17:20;;;;;;;2.73;0.70;;;11.80;99.90;;;14.33;64.10;95881.56;5075737;28;20208;-77
2021/01/22 10:19:46;;;;;;;3.33;0.43;;;11.80;99.90;;;14.25;62.83;95869.53;5062912;28;20972;-81
2021/01/22 10:22:13;;;;;;;1.03;0.50;;;11.80;99.90;;;13.88;67.18;95868.31;5068348;28;20202;-80
2021/01/22 10:24:41;;;;;;;3.47;1.13;;;11.60;99.90;;;14.11;66.83;95860.44;5067532;28;20201;-78
2021/01/22 10:27:08;;;;;;;3.00;0.77;;;11.60;99.90;;;14.32;64.62;95866.53;5075038;28;20619;-80
2021/01/22 10:29:34;;;;;;;1.00;0.53;;;11.60;99.90;;;14.26;62.71;95881.06;5069548;28;20232;-81
2021/01/22 10:32:01;;;;;;;1.27;0.50;;;11.70;99.90;;;14.36;63.00;95871.09;5068946;28;20639;-78
2021/01/22 10:34:28;;;;;;;1.10;0.60;;;11.80;99.90;;;14.33;63.19;95863.56;5068320;28;20286;-79
2021/01/22 10:36:55;;;;;;;2.93;0.90;;;11.80;99.90;;;14.40;63.51;95871.31;5060641;28;20225;-78
2021/01/22 10:39:21;;;;;;;1.93;0.67;;;11.90;99.90;;;14.66;61.95;95868.22;5068256;28;20792;-75
2021/01/22 10:41:48;;;;;;;2.23;0.73;;;12.00;99.90;;;14.73;62.99;95865.22;5060614;28;20232;-76